Data for 07/02/2010

Time Sea-Level Adjusted Pressure Absolute Pressure Temperature Relative Humidity Dew Point   
(mb) (inHg) (mb) (inHg) (C) (F) (%) (C) (F)
00:05 1011 29.85 840 24.81 16.5 61.8 73 11.8 53.2
00:10 1011 29.85 840 24.81 16.3 61.3 74 11.7 53.1
00:15 1011 29.85 840 24.81 15.8 60.5 76 11.6 52.9
00:20 1011 29.85 840 24.81 15.6 60 77 11.6 53
00:25 1011 29.85 840 24.81 15.3 59.6 77 11.4 52.6
00:30 1011 29.85 840 24.81 15.2 59.3 78 11.3 52.4
00:35 1011 29.85 840 24.81 15.1 59.2 78 11.3 52.3
00:40 1011 29.85 840 24.81 15 59 77 11.1 52
00:45 1011 29.85 841 24.83 14.9 58.8 77 11 51.8
00:50 1011 29.85 841 24.83 14.9 58.8 77 11 51.7
00:55 1011 29.85 841 24.83 14.8 58.7 77 10.9 51.6
01:00 1011 29.85 841 24.83 14.9 58.7 77 10.9 51.7
01:05 1011 29.85 841 24.83 14.8 58.6 78 11 51.8
01:10 1012 29.88 841 24.83 14.1 57.5 80 10.8 51.4
01:15 1012 29.88 841 24.83 14.1 57.3 79 10.6 51
01:20 1012 29.88 841 24.83 14.4 57.9 78 10.5 51
01:25 1012 29.88 841 24.83 14.6 58.2 77 10.7 51.3
01:30 1012 29.88 841 24.83 14.3 57.8 79 10.7 51.3
01:35 1012 29.88 841 24.83 14.2 57.5 78 10.5 50.9
01:40 1012 29.88 841 24.83 14.1 57.3 79 10.6 51
01:45 1012 29.88 841 24.83 14 57.1 78 10.3 50.5
01:50 1012 29.88 841 24.83 14.1 57.4 78 10.3 50.6
01:55 1012 29.88 841 24.83 14.1 57.3 78 10.4 50.7
02:00 1012 29.88 841 24.83 13.9 57.1 79 10.4 50.6
02:05 1012 29.88 841 24.83 13.8 56.8 80 10.3 50.6
02:10 1011 29.85 841 24.83 13.6 56.4 80 10.2 50.4
02:15 1011 29.85 841 24.83 13.5 56.3 80 10.2 50.4
02:20 1011 29.85 841 24.83 13.3 55.9 82 10.2 50.4
02:25 1011 29.85 841 24.83 13.1 55.6 82 10.1 50.2
02:30 1011 29.85 841 24.83 13.3 55.9 81 10.1 50.1
02:35 1011 29.85 840 24.81 13.3 56 81 10.2 50.3
02:40 1011 29.85 840 24.81 13.1 55.6 82 10.1 50.2
02:45 1011 29.85 840 24.81 13.1 55.6 81 10 49.9
02:50 1011 29.85 840 24.81 13.3 55.9 80 9.9 49.8
02:55 1011 29.85 840 24.81 13.4 56 80 10 50
03:00 1011 29.85 840 24.81 12.8 55.1 82 9.9 49.9
03:05 1011 29.85 840 24.81 12.9 55.2 81 9.7 49.5
03:10 1011 29.85 840 24.81 13.2 55.7 81 10 49.9
03:15 1011 29.85 840 24.81 13.1 55.6 80 9.7 49.5
03:20 1011 29.85 840 24.81 13.2 55.7 81 10 49.9
03:25 1011 29.85 840 24.81 12.9 55.3 82 9.9 49.8
03:30 1011 29.85 840 24.81 13 55.4 81 9.8 49.7
03:35 1011 29.85 840 24.81 13.1 55.6 80 9.8 49.6
03:40 1011 29.85 840 24.81 13.2 55.8 80 9.8 49.6
03:45 1011 29.85 840 24.81 13.2 55.7 79 9.7 49.5
03:50 1011 29.85 840 24.81 13 55.3 81 9.8 49.6
03:55 1011 29.85 840 24.81 12.9 55.2 81 9.7 49.5
04:00 1011 29.85 840 24.81 12.8 55 81 9.6 49.2
04:05 1011 29.85 840 24.81 12.7 54.9 81 9.6 49.2
04:10 1010 29.83 840 24.81 12.8 55 81 9.6 49.3
04:15 1010 29.83 840 24.81 12.6 54.7 83 9.8 49.6
04:20 1010 29.83 840 24.81 12.5 54.6 83 9.7 49.5
04:25 1010 29.83 839 24.78 12.4 54.3 83 9.6 49.3
04:30 1010 29.83 839 24.78 12.4 54.4 83 9.7 49.5
04:35 1010 29.83 839 24.78 12.6 54.7 82 9.6 49.3
04:40 1010 29.83 839 24.78 12.7 54.9 82 9.7 49.4
04:45 1010 29.83 839 24.78 12.6 54.8 82 9.7 49.5
04:50 1010 29.83 839 24.78 12.6 54.8 83 9.8 49.7
04:55 1010 29.83 839 24.78 12.6 54.7 83 9.8 49.6
05:00 1010 29.83 839 24.78 12.6 54.6 82 9.7 49.4
05:05 1010 29.83 839 24.78 12.5 54.5 82 9.5 49.2
05:10 1010 29.83 839 24.78 12.3 54.1 83 9.5 49.1
05:15 1010 29.83 839 24.78 12.2 54 83 9.5 49.1
05:20 1010 29.83 839 24.78 12.2 54 83 9.4 49
05:25 1010 29.83 839 24.78 12.2 53.9 83 9.4 48.9
05:30 1010 29.83 839 24.78 12.2 53.9 82 9.3 48.7
05:35 1010 29.83 839 24.78 12.2 53.9 82 9.3 48.7
05:40 1010 29.83 839 24.78 12.2 53.9 81 9 48.2
05:45 1010 29.83 839 24.78 12.2 54 80 8.9 48
05:50 1010 29.83 839 24.78 12.2 54 81 9.1 48.3
05:55 1010 29.83 839 24.78 12.2 54 80 9 48.1
06:00 1010 29.83 839 24.78 11.7 53.1 82 8.7 47.7
06:05 1010 29.83 839 24.78 11.5 52.6 83 8.7 47.6
06:10 1010 29.83 839 24.78 11.9 53.4 79 8.4 47
06:15 1010 29.83 839 24.78 12.4 54.3 76 8.3 46.9
06:20 1010 29.83 839 24.78 12.4 54.3 79 8.8 47.9
06:25 1010 29.83 839 24.78 13.1 55.6 73 8.4 47.1
06:30 1010 29.83 839 24.78 13.3 55.9 74 8.8 47.9
06:35 1010 29.83 839 24.78 13.2 55.7 75 8.9 48.1
06:40 1010 29.83 839 24.78 12.7 54.8 76 8.5 47.3
06:45 1010 29.83 839 24.78 12.6 54.7 75 8.3 46.9
06:50 1010 29.83 839 24.78 12.8 55 75 8.6 47.5
06:55 1010 29.83 839 24.78 12.7 54.8 76 8.6 47.5
07:00 1010 29.83 839 24.78 12.8 55 76 8.8 47.8
07:05 1010 29.83 839 24.78 13.2 55.8 75 8.9 48
07:10 1010 29.83 839 24.78 13.3 56 75 9 48.3
07:15 1010 29.83 839 24.78 13.7 56.6 73 9 48.2
07:20 1010 29.83 839 24.78 14 57.2 73 9.2 48.5
07:25 1010 29.83 839 24.78 13.9 57.1 76 9.8 49.7
07:30 1010 29.83 839 24.78 14.2 57.6 73 9.5 49.2
07:35 1009 29.8 839 24.78 14.7 58.5 71 9.7 49.4
07:40 1010 29.83 839 24.78 15.1 59.1 70 9.7 49.5
07:45 1010 29.83 839 24.78 14.6 58.2 72 9.6 49.3
07:50 1010 29.83 839 24.78 14.6 58.3 73 9.8 49.7
07:55 1010 29.83 839 24.78 14.9 58.8 73 10.1 50.3
08:00 1010 29.83 839 24.78 15.1 59.2 72 10.2 50.4
08:05 1010 29.83 839 24.78 14.8 58.7 75 10.4 50.7
08:10 1010 29.83 839 24.78 14.4 57.9 75 10 50
08:15 1010 29.83 839 24.78 15.5 59.8 68 9.7 49.5
08:20 1010 29.83 839 24.78 16.3 61.4 66 10 50
08:25 1010 29.83 839 24.78 16.8 62.2 64 9.9 49.9
08:30 1010 29.83 839 24.78 16.9 62.4 65 10.3 50.6
08:35 1010 29.83 839 24.78 17.1 62.8 64 10.3 50.6
08:40 1010 29.83 839 24.78 17.4 63.4 62 10.2 50.4
08:45 1010 29.83 839 24.78 17.7 63.9 63 10.7 51.2
08:50 1010 29.83 839 24.78 17.8 64 62 10.4 50.7
08:55 1010 29.83 839 24.78 17.9 64.3 61 10.5 50.9
09:00 1010 29.83 839 24.78 17.9 64.3 62 10.7 51.2
09:05 1010 29.83 839 24.78 18.2 64.7 61 10.6 51.1
09:10 1010 29.83 839 24.78 18.2 64.7 62 10.8 51.4
09:15 1010 29.83 839 24.78 17.6 63.7 62 10.3 50.5
09:20 1010 29.83 839 24.78 18.4 65 57 9.9 49.8
09:25 1010 29.83 839 24.78 19.7 67.4 54 10.3 50.5
09:30 1009 29.8 839 24.78 19.3 66.7 58 10.9 51.6
09:35 1009 29.8 839 24.78 20 68 54 10.4 50.8
09:40 1010 29.83 839 24.78 20.3 68.5 55 11 51.9
09:45 1010 29.83 839 24.78 20.2 68.4 54 10.8 51.4
09:50 1010 29.83 839 24.78 19.5 67.2 57 11 51.8
09:55 1010 29.83 839 24.78 19.9 67.7 56 10.9 51.5
10:00 1010 29.83 839 24.78 20 67.9 56 11.1 52.1
10:05 1010 29.83 839 24.78 19.1 66.3 58 10.8 51.4
10:10 1010 29.83 839 24.78 18.9 66 60 11.1 52
10:15 1009 29.8 839 24.78 18.6 65.5 60 10.7 51.2
10:20 1009 29.8 839 24.78 19.4 67 55 10.3 50.5
10:25 1009 29.8 839 24.78 19.8 67.6 57 11.1 52
10:30 1009 29.8 839 24.78 19.8 67.6 55 10.6 51.2
10:35 1009 29.8 839 24.78 20 68.1 56 11.2 52.2
10:40 1009 29.8 839 24.78 19.9 67.8 56 10.9 51.5
10:45 1009 29.8 839 24.78 20.3 68.5 54 10.6 51.1
10:50 1009 29.8 839 24.78 21.1 70 54 11.5 52.6
10:55 1009 29.8 839 24.78 20.6 69.1 59 12.5 54.4
11:00 1009 29.8 839 24.78 20.6 69 57 11.7 53.1
11:05 1009 29.8 839 24.78 21.6 70.8 54 12 53.6
11:10 1009 29.8 839 24.78 21.2 70.2 58 12.8 55
11:15 1009 29.8 839 24.78 20.6 69 58 12.2 54
11:20 1009 29.8 839 24.78 20.3 68.5 58 11.9 53.3
11:25 1009 29.8 839 24.78 20 68 60 12.1 53.7
11:30 1010 29.83 839 24.78 20.1 68.1 60 12.1 53.7
11:35 1010 29.83 839 24.78 20.5 68.8 60 12.5 54.5
11:40 1010 29.83 839 24.78 20.1 68.2 66 13.6 56.4
11:45 1010 29.83 839 24.78 19.3 66.7 66 12.8 55.1
11:50 1010 29.83 839 24.78 19.2 66.5 67 13 55.4
11:55 1010 29.83 839 24.78 19.1 66.4 65 12.4 54.4
12:00 1010 29.83 839 24.78 19.2 66.6 61 11.6 52.9
12:05 1010 29.83 839 24.78 20.1 68.2 56 11.1 52
12:10 1010 29.83 839 24.78 20.3 68.6 54 10.8 51.5
12:15 1010 29.83 839 24.78 20.6 69.1 53 10.8 51.4
12:20 1010 29.83 839 24.78 20.9 69.5 52 10.8 51.4
12:25 1010 29.83 839 24.78 21.6 70.8 49 10.5 50.9
12:30 1010 29.83 839 24.78 22.4 72.3 47 10.8 51.4
12:35 1010 29.83 839 24.78 22.4 72.4 50 11.8 53.2
12:40 1010 29.83 839 24.78 22.5 72.4 49 11.3 52.4
12:45 1009 29.8 839 24.78 22.7 72.9 48 11.3 52.4
12:50 1009 29.8 839 24.78 23 73.3 48 11.5 52.6
12:55 1009 29.8 839 24.78 23.2 73.8 46 11.3 52.3
13:00 1009 29.8 839 24.78 23.4 74.1 44 10.8 51.4
13:05 1009 29.8 839 24.78 23.1 73.6 48 11.7 53.1
13:10 1009 29.8 839 24.78 22.9 73.2 49 11.9 53.5
13:15 1009 29.8 839 24.78 23.1 73.5 50 12.3 54.1
13:20 1009 29.8 839 24.78 23 73.4 53 13.1 55.5
13:25 1009 29.8 839 24.78 22.3 72.1 51 11.7 53
13:30 1009 29.8 839 24.78 22.6 72.6 48 11.3 52.3
13:35 1009 29.8 838 24.75 22.6 72.7 50 11.8 53.2
13:40 1009 29.8 839 24.78 22.5 72.4 51 11.9 53.4
13:45 1009 29.8 839 24.78 22.4 72.3 50 11.6 52.9
13:50 1009 29.8 838 24.75 22.5 72.5 49 11.5 52.7
13:55 1009 29.8 838 24.75 22.7 72.9 49 11.5 52.7
14:00 1009 29.8 838 24.75 22.7 72.8 50 11.7 53.1
14:05 1009 29.8 838 24.75 22.7 72.9 48 11.4 52.5
14:10 1009 29.8 838 24.75 23 73.3 49 11.8 53.2
14:15 1009 29.8 838 24.75 22.9 73.3 47 11 51.9
14:20 1009 29.8 838 24.75 23 73.4 45 10.7 51.2
14:25 1009 29.8 838 24.75 23.5 74.2 45 10.9 51.6
14:30 1009 29.8 838 24.75 23.3 73.9 47 11.5 52.7
14:35 1009 29.8 838 24.75 23 73.3 46 10.9 51.6
14:40 1009 29.8 838 24.75 23.2 73.7 45 10.8 51.5
14:45 1009 29.8 838 24.75 22.7 72.9 46 10.7 51.2
14:50 1009 29.8 838 24.75 23 73.3 46 10.9 51.7
14:55 1009 29.8 838 24.75 23 73.3 47 11.2 52.2
15:00 1009 29.8 838 24.75 22.3 72.1 49 11.2 52.1
15:05 1009 29.8 838 24.75 22.8 73.1 44 10 49.9
15:10 1009 29.8 839 24.78 22.4 72.4 44 9.6 49.4
15:15 1009 29.8 839 24.78 21.6 70.8 48 10.1 50.2
15:20 1010 29.83 839 24.78 20.6 69 53 10.7 51.2
15:25 1010 29.83 839 24.78 19.3 66.7 53 9.5 49.2
15:30 1010 29.83 839 24.78 19.4 67 49 8.5 47.2
15:35 1010 29.83 839 24.78 19.3 66.7 52 9.2 48.6
15:40 1010 29.83 839 24.78 18.9 66.1 54 9.4 49
15:45 1010 29.83 839 24.78 18.9 65.9 56 10 50
15:50 1010 29.83 840 24.81 18.5 65.3 58 10.1 50.2
15:55 1010 29.83 839 24.78 18.6 65.4 55 9.6 49.2
16:00 1010 29.83 840 24.81 18.7 65.7 55 9.6 49.2
16:05 1010 29.83 839 24.78 19 66.3 52 9.2 48.5
16:10 1010 29.83 839 24.78 18.7 65.6 50 8.2 46.8
16:15 1010 29.83 839 24.78 19.3 66.8 47 7.8 46.1
16:20 1010 29.83 840 24.81 19.7 67.4 47 8 46.4
16:25 1010 29.83 840 24.81 19.1 66.3 48 7.8 46.1
16:30 1010 29.83 840 24.81 19.1 66.3 45 7.2 44.9
16:35 1010 29.83 840 24.81 19.2 66.5 47 7.7 45.9
16:40 1010 29.83 840 24.81 19.2 66.6 44 6.9 44.3
16:45 1010 29.83 840 24.81 19.5 67.1 44 7.1 44.8
16:50 1010 29.83 840 24.81 19.8 67.6 45 7.8 46
16:55 1011 29.85 840 24.81 19.4 67 46 7.7 45.9
17:00 1011 29.85 840 24.81 19.1 66.4 49 8.2 46.7
17:05 1011 29.85 840 24.81 18.8 65.9 49 8.1 46.6
17:10 1011 29.85 840 24.81 18.7 65.7 49 8.1 46.5
17:15 1011 29.85 840 24.81 18.9 66 49 8.2 46.8
17:20 1011 29.85 840 24.81 19 66.1 50 8.5 47.3
17:25 1011 29.85 840 24.81 19.2 66.6 50 8.7 47.7
17:30 1011 29.85 840 24.81 19.1 66.3 51 8.7 47.6
17:35 1011 29.85 840 24.81 19.1 66.3 52 9.1 48.4
17:40 1011 29.85 840 24.81 18.9 66.1 52 9 48.2
17:45 1011 29.85 840 24.81 18.8 65.8 51 8.6 47.5
17:50 1011 29.85 840 24.81 18.7 65.7 50 8.3 46.9
17:55 1011 29.85 840 24.81 19 66.2 49 8.1 46.5
18:00 1011 29.85 840 24.81 19.3 66.8 49 8.4 47.1
18:05 1011 29.85 840 24.81 19.4 66.9 47 7.9 46.3
18:10 1010 29.83 840 24.81 19.4 66.9 47 8 46.4
18:15 1010 29.83 840 24.81 19.5 67 47 8.1 46.6
18:20 1010 29.83 840 24.81 19.7 67.4 47 8 46.5
18:25 1010 29.83 840 24.81 19.8 67.6 45 7.7 45.9
18:30 1010 29.83 840 24.81 19.7 67.4 44 7.2 45
18:35 1010 29.83 840 24.81 19.5 67.1 47 8.1 46.6
18:40 1010 29.83 839 24.78 19.4 66.8 47 7.7 45.9
18:45 1010 29.83 839 24.78 19.4 67 47 8.1 46.5
18:50 1010 29.83 839 24.78 19.6 67.2 47 8.2 46.8
18:55 1010 29.83 839 24.78 19.9 67.8 45 7.9 46.2
19:00 1010 29.83 839 24.78 20.2 68.4 44 7.6 45.7
19:05 1010 29.83 839 24.78 19.9 67.8 43 7.3 45.1
19:10 1010 29.83 839 24.78 19.7 67.4 45 7.4 45.4
19:15 1010 29.83 839 24.78 19.7 67.4 49 8.8 47.9
19:20 1010 29.83 839 24.78 18.6 65.6 48 7.6 45.7
19:25 1010 29.83 839 24.78 19 66.2 45 7.1 44.7
19:30 1010 29.83 839 24.78 18.9 66.1 46 7.3 45.2
19:35 1010 29.83 839 24.78 18.4 65.1 49 7.6 45.7
19:40 1010 29.83 840 24.81 18.1 64.7 52 8.2 46.7
19:45 1010 29.83 840 24.81 17.9 64.1 52 8 46.5
19:50 1011 29.85 840 24.81 17.7 63.8 52 7.7 45.9
19:55 1011 29.85 840 24.81 17.5 63.4 54 8.1 46.5
20:00 1011 29.85 840 24.81 17.3 63.2 53 7.7 45.8
20:05 1011 29.85 840 24.81 17.4 63.3 54 8 46.4
20:10 1011 29.85 840 24.81 17.2 63 54 8 46.4
20:15 1011 29.85 840 24.81 16.9 62.4 56 8.1 46.6
20:20 1011 29.85 840 24.81 16.6 61.9 57 8.2 46.7
20:25 1011 29.85 840 24.81 16.5 61.6 58 8.1 46.6
20:30 1011 29.85 840 24.81 16.1 61 60 8.4 47.1
20:35 1011 29.85 840 24.81 15.8 60.4 60 8 46.4
20:40 1011 29.85 841 24.83 15.7 60.2 61 8.2 46.7
20:45 1012 29.88 841 24.83 15.5 59.9 61 8.1 46.7
20:50 1012 29.88 841 24.83 15.4 59.7 62 8.1 46.6
20:55 1012 29.88 841 24.83 15.2 59.3 62 8.1 46.5
21:00 1012 29.88 841 24.83 15.1 59.2 62 8 46.4
21:05 1012 29.88 841 24.83 15 59 63 8.2 46.7
21:10 1012 29.88 841 24.83 14.8 58.7 65 8.4 47.2
21:15 1012 29.88 841 24.83 14.6 58.3 66 8.5 47.3
21:20 1012 29.88 841 24.83 14.3 57.8 67 8.4 47.1
21:25 1012 29.88 841 24.83 14.2 57.5 66 8.1 46.5
21:30 1012 29.88 841 24.83 14.2 57.6 66 8 46.5
21:35 1012 29.88 842 24.86 14.1 57.5 67 8.2 46.8
21:40 1012 29.88 842 24.86 14.1 57.3 67 8 46.4
21:45 1013 29.91 842 24.86 14 57.2 67 7.9 46.3
21:50 1013 29.91 842 24.86 13.9 57 72 8.9 48.1
21:55 1013 29.91 842 24.86 13 55.3 75 8.7 47.7
22:00 1013 29.91 842 24.86 12.8 55 74 8.4 47.1
22:05 1013 29.91 842 24.86 13 55.4 73 8.3 46.9
22:10 1013 29.91 842 24.86 13.1 55.6 72 8.3 47
22:15 1013 29.91 842 24.86 13.1 55.5 73 8.4 47.2
22:20 1013 29.91 842 24.86 13 55.4 74 8.5 47.3
22:25 1013 29.91 842 24.86 13 55.4 73 8.2 46.8
22:30 1013 29.91 842 24.86 13 55.4 72 8 46.4
22:35 1013 29.91 842 24.86 13 55.5 72 8.1 46.5
22:40 1013 29.91 842 24.86 13.2 55.7 71 8 46.5
22:45 1013 29.91 842 24.86 13.1 55.6 72 8.2 46.7
22:50 1013 29.91 842 24.86 13.2 55.7 71 8 46.4
22:55 1013 29.91 842 24.86 13 55.4 72 8 46.4
23:00 1013 29.91 842 24.86 12.9 55.3 71 7.9 46.2
23:05 1013 29.91 842 24.86 12.9 55.1 71 7.8 46
23:10 1013 29.91 842 24.86 13.1 55.5 69 7.6 45.7
23:15 1013 29.91 842 24.86 13.1 55.6 70 7.8 46
23:20 1013 29.91 842 24.86 13.1 55.5 71 7.9 46.2
23:25 1013 29.91 842 24.86 13 55.3 71 7.9 46.3
23:30 1013 29.91 842 24.86 13 55.4 70 7.8 46
23:35 1013 29.91 842 24.86 13 55.4 71 7.9 46.1
23:40 1013 29.91 842 24.86 13 55.4 72 8 46.4
23:45 1013 29.91 842 24.86 12.8 55.1 73 8.1 46.5
23:50 1013 29.91 842 24.86 12.6 54.7 73 8 46.4
23:55 1013 29.91 842 24.86 12.5 54.6 74 8 46.4
24:00 1013 29.91 842 24.86 12.6 54.6 73 8 46.4